Time;durP1;ratioP1;P1;durP2;ratioP2;P2;SDS_P1;SDS_P2;PMS_P1;PMS_P2;Temp;Humidity;BMP_temperature;BMP_pressure;BME280_temperature;BME280_humidity;BME280_pressure;Samples;Min_cycle;Max_cycle;Signal;HPM_P1;HPM_P2
2021/12/20 00:00:18;;;;;;;6.77;1.77;;;;;;;3.69;100.00;99965.88;10538745;28;20628;-66
2021/12/20 00:05:42;;;;;;;5.03;1.33;;;;;;;3.76;100.00;99971.09;10538841;28;20632;-65
2021/12/20 00:10:46;;;;;;;4.03;1.37;;;;;;;3.69;100.00;99963.31;10539034;28;20195;-67
2021/12/20 00:15:49;;;;;;;6.67;1.40;;;;;;;3.73;100.00;99975.34;10538627;28;20672;-66
2021/12/20 00:20:54;;;;;;;7.83;2.13;;;;;;;3.72;100.00;99965.91;10541424;28;20195;-65
2021/12/20 00:25:57;;;;;;;108.23;55.93;;;;;;;3.67;100.00;99968.44;10546828;28;20223;-70
2021/12/20 00:31:00;;;;;;;4.03;1.30;;;;;;;3.77;100.00;99965.09;10546463;28;20224;-70
2021/12/20 00:36:09;;;;;;;6.40;1.13;;;;;;;3.74;100.00;99977.91;10546468;28;20237;-67
2021/12/20 00:41:12;;;;;;;4.33;1.20;;;;;;;3.71;100.00;99980.44;10575842;28;20612;-65
2021/12/20 00:46:16;;;;;;;4.10;1.30;;;;;;;3.82;100.00;99973.72;10588100;28;20218;-67
2021/12/20 00:51:20;;;;;;;5.57;1.10;;;;;;;3.61;100.00;99972.63;10588164;28;20221;-65
2021/12/20 00:56:23;;;;;;;6.23;1.20;;;;;;;3.59;100.00;99979.44;10587555;27;20738;-64
2021/12/20 01:01:27;;;;;;;5.33;1.80;;;;;;;3.36;100.00;99984.31;10587368;28;20241;-66
2021/12/20 01:06:31;;;;;;;5.23;1.50;;;;;;;3.52;100.00;99979.38;10587325;28;20551;-66
2021/12/20 01:11:39;;;;;;;4.97;1.43;;;;;;;3.64;100.00;99981.22;10586655;28;20710;-66
2021/12/20 01:16:42;;;;;;;5.90;1.90;;;;;;;3.51;100.00;99981.91;10586927;28;20245;-66
2021/12/20 01:21:47;;;;;;;5.13;1.40;;;;;;;3.52;100.00;99983.63;10586664;27;20210;-66
2021/12/20 01:26:50;;;;;;;5.03;1.23;;;;;;;3.49;100.00;99988.72;10586376;28;20679;-64
2021/12/20 01:31:53;;;;;;;5.07;1.50;;;;;;;3.51;100.00;99982.78;10586240;28;20219;-70
2021/12/20 01:36:58;;;;;;;5.93;1.27;;;;;;;3.40;100.00;99983.47;10586049;27;20229;-64
2021/12/20 01:42:04;;;;;;;6.07;1.60;;;;;;;3.46;100.00;99984.44;10549213;28;20680;-66
2021/12/20 01:47:08;;;;;;;3.73;1.17;;;;;;;3.44;100.00;99991.25;10543587;28;20212;-65
2021/12/20 01:52:15;;;;;;;6.33;1.17;;;;;;;3.44;100.00;99986.13;10543565;28;20219;-67
2021/12/20 01:57:20;;;;;;;3.47;0.93;;;;;;;3.38;100.00;99988.59;10543737;28;20219;-65
2021/12/20 02:02:23;;;;;;;3.43;1.00;;;;;;;3.29;100.00;99988.50;10545988;28;20241;-64
2021/12/20 02:07:37;;;;;;;6.43;1.20;;;;;;;3.38;100.00;99990.31;10545663;28;20225;-66
2021/12/20 02:12:40;;;;;;;4.70;1.10;;;;;;;3.32;100.00;99988.53;10545447;28;20299;-67
2021/12/20 02:17:43;;;;;;;3.83;1.33;;;;;;;3.26;100.00;99996.13;10545201;28;20678;-64
2021/12/20 02:22:48;;;;;;;3.23;0.90;;;;;;;3.13;100.00;99980.56;10545326;28;20223;-68
2021/12/20 02:27:51;;;;;;;3.20;1.10;;;;;;;3.22;100.00;99983.25;10545048;28;20224;-68
2021/12/20 02:38:19;;;;;;;4.10;1.10;;;;;;;3.40;100.00;99968.97;10523711;28;20668;-64
2021/12/20 02:43:22;;;;;;;5.03;1.40;;;;;;;3.39;100.00;99976.63;10544856;28;20238;-67
2021/12/20 02:48:25;;;;;;;4.50;1.30;;;;;;;3.14;100.00;99974.63;10544337;28;20392;-67
2021/12/20 02:53:30;;;;;;;4.83;1.57;;;;;;;3.24;100.00;99969.63;10543841;28;20226;-67
2021/12/20 02:58:33;;;;;;;4.47;0.97;;;;;;;3.31;100.00;99965.44;10543806;28;20219;-66
2021/12/20 03:03:36;;;;;;;6.77;1.20;;;;;;;3.26;100.00;99960.22;10543526;28;20224;-69
2021/12/20 03:08:45;;;;;;;2.87;0.90;;;;;;;3.20;100.00;99931.09;10543689;28;20215;-69
2021/12/20 03:13:52;;;;;;;5.07;0.90;;;;;;;3.14;100.00;99944.69;10543217;28;20649;-67
2021/12/20 03:18:55;;;;;;;2.60;0.90;;;;;;;3.06;100.00;99941.19;10543266;28;20656;-66
2021/12/20 03:24:00;;;;;;;5.77;1.10;;;;;;;3.17;100.00;99956.69;10542868;28;20665;-64
2021/12/20 03:29:05;;;;;;;4.00;1.37;;;;;;;2.93;100.00;99954.69;10542876;28;20230;-69
2021/12/20 03:34:09;;;;;;;3.40;0.90;;;;;;;3.10;100.00;99955.78;10542828;28;20219;-68
2021/12/20 03:39:14;;;;;;;3.40;1.13;;;;;;;3.08;100.00;99954.00;10542754;28;20255;-65
2021/12/20 03:44:17;;;;;;;4.20;1.17;;;;;;;3.10;100.00;99960.91;10542544;28;20302;-65
2021/12/20 03:49:21;;;;;;;4.33;0.90;;;;;;;3.15;100.00;99958.38;10542420;28;20223;-68
2021/12/20 03:54:25;;;;;;;4.10;1.00;;;;;;;3.02;100.00;99944.53;10542990;28;20227;-66
2021/12/20 03:59:29;;;;;;;3.77;0.93;;;;;;;2.91;100.00;99950.38;10551001;28;20313;-70
2021/12/20 04:04:32;;;;;;;3.90;1.17;;;;;;;2.94;100.00;99950.41;10550740;28;20230;-64
2021/12/20 04:09:37;;;;;;;4.33;1.30;;;;;;;2.91;100.00;99952.94;10550489;28;20683;-67
2021/12/20 04:14:40;;;;;;;3.20;1.00;;;;;;;2.84;100.00;99958.81;10549964;28;20298;-69
2021/12/20 04:19:43;;;;;;;6.30;1.30;;;;;;;2.80;100.00;99952.78;10550233;28;20537;-67
2021/12/20 04:24:48;;;;;;;5.13;1.87;;;;;;;2.92;100.00;99949.50;10549944;28;20219;-66
2021/12/20 04:29:54;;;;;;;4.63;1.10;;;;;;;2.94;100.00;99968.34;10549759;28;20238;-67
2021/12/20 04:34:57;;;;;;;3.70;1.07;;;;;;;3.06;100.00;99961.69;10549586;28;20211;-67
2021/12/20 04:40:06;;;;;;;4.13;1.13;;;;;;;2.86;100.00;99941.75;10549217;28;20246;-69
2021/12/20 04:45:10;;;;;;;7.53;2.90;;;;;;;2.92;100.00;99963.19;10549519;28;20223;-67
2021/12/20 04:50:13;;;;;;;3.43;1.07;;;;;;;2.99;100.00;99970.13;10549211;28;20238;-67
2021/12/20 04:55:18;;;;;;;3.93;0.70;;;;;;;3.09;100.00;99966.00;10548615;28;20298;-67
2021/12/20 05:00:25;;;;;;;2.60;0.80;;;;;;;3.09;100.00;99971.97;10548304;28;20239;-65
2021/12/20 05:05:29;;;;;;;3.50;0.83;;;;;;;3.20;100.00;99962.72;10548032;28;20242;-66
2021/12/20 05:10:39;;;;;;;4.23;1.10;;;;;;;3.13;100.00;99976.31;10548341;28;20219;-65
2021/12/20 05:15:43;;;;;;;3.37;0.90;;;;;;;2.97;100.00;99986.34;10547961;28;20225;-69
2021/12/20 05:20:46;;;;;;;3.77;1.03;;;;;;;2.99;100.00;99984.63;10547569;28;20233;-69
2021/12/20 05:25:51;;;;;;;2.60;0.80;;;;;;;3.03;100.00;100004.34;10547551;28;20222;-65
2021/12/20 05:30:54;;;;;;;4.23;1.20;;;;;;;3.02;100.00;99994.97;10548521;28;20211;-66
2021/12/20 05:35:58;;;;;;;3.07;1.10;;;;;;;3.00;100.00;100017.13;10546756;28;20306;-69
2021/12/20 05:41:22;;;;;;;3.53;1.50;;;;;;;3.03;100.00;100018.03;10546957;28;20279;-68
2021/12/20 05:46:25;;;;;;;3.20;1.40;;;;;;;3.06;100.00;100030.91;10546888;28;20223;-70
2021/12/20 05:51:29;;;;;;;3.93;1.50;;;;;;;3.12;100.00;100014.75;10546836;28;20216;-65
2021/12/20 05:56:34;;;;;;;3.97;1.30;;;;;;;3.12;100.00;100027.56;10546519;28;20231;-70
2021/12/20 06:01:37;;;;;;;3.33;1.40;;;;;;;3.12;100.00;100041.22;10545813;28;20571;-69
2021/12/20 06:06:40;;;;;;;3.00;1.30;;;;;;;3.11;100.00;100061.72;10545372;28;20695;-66
2021/12/20 06:11:45;;;;;;;5.23;1.10;;;;;;;3.03;100.00;100053.06;10542937;28;20219;-65
2021/12/20 06:16:48;;;;;;;3.83;1.30;;;;;;;3.00;100.00;100069.25;10541643;28;20250;-68
2021/12/20 06:21:54;;;;;;;4.07;1.60;;;;;;;2.88;100.00;100075.91;10541802;28;20306;-68
2021/12/20 06:26:59;;;;;;;5.20;1.67;;;;;;;2.86;100.00;100083.56;10189408;28;10000569;-70
2021/12/20 06:32:03;;;;;;;4.47;1.93;;;;;;;2.82;100.00;100093.72;10541622;28;20660;-65
2021/12/20 06:37:07;;;;;;;5.73;1.53;;;;;;;2.82;100.00;100103.97;10536144;28;20670;-71
2021/12/20 06:42:12;;;;;;;4.47;2.10;;;;;;;2.87;100.00;100117.72;10541601;28;20215;-66
2021/12/20 06:47:16;;;;;;;3.87;1.67;;;;;;;2.84;100.00;100116.00;10540870;28;20219;-65
2021/12/20 06:52:19;;;;;;;3.47;1.60;;;;;;;2.88;100.00;100125.44;10541304;28;20258;-68
2021/12/20 06:57:24;;;;;;;3.77;1.60;;;;;;;2.86;100.00;100127.13;10540722;28;20241;-67
2021/12/20 07:02:28;;;;;;;4.03;1.70;;;;;;;2.94;100.00;100138.34;10540978;28;20566;-64
2021/12/20 07:07:32;;;;;;;3.27;1.43;;;;;;;2.96;100.00;100135.81;10540391;28;20217;-65
2021/12/20 07:12:37;;;;;;;5.40;1.90;;;;;;;2.99;100.00;100139.28;10540130;28;20241;-67
2021/12/20 07:17:42;;;;;;;6.00;2.20;;;;;;;3.03;100.00;100148.78;10539803;28;20215;-67
2021/12/20 07:22:46;;;;;;;5.83;2.30;;;;;;;3.07;100.00;100147.13;10540316;28;20237;-69
2021/12/20 07:27:53;;;;;;;4.57;1.60;;;;;;;3.21;100.00;100146.47;10539401;28;20690;-68
2021/12/20 07:32:56;;;;;;;4.63;1.20;;;;;;;3.31;100.00;100156.03;10539735;28;20298;-66
2021/12/20 07:38:01;;;;;;;6.37;1.53;;;;;;;3.31;100.00;100155.19;10539067;28;20309;-68
2021/12/20 07:43:05;;;;;;;3.60;1.50;;;;;;;3.27;100.00;100150.84;10539374;28;20219;-65
2021/12/20 07:48:09;;;;;;;3.67;1.20;;;;;;;3.25;100.00;100157.66;10539518;28;20267;-69
2021/12/20 07:53:13;;;;;;;4.57;1.60;;;;;;;3.32;100.00;100151.78;10539794;28;20224;-69
2021/12/20 07:58:18;;;;;;;3.47;1.40;;;;;;;3.31;100.00;100162.91;10538577;28;20246;-67
2021/12/20 08:03:21;;;;;;;4.27;1.83;;;;;;;3.39;100.00;100166.44;10538704;28;20241;-68
2021/12/20 08:08:24;;;;;;;4.10;1.93;;;;;;;3.43;100.00;100169.06;10538847;28;20233;-68
2021/12/20 08:13:31;;;;;;;3.70;1.33;;;;;;;3.47;100.00;100185.34;10538807;28;20215;-66
2021/12/20 08:18:34;;;;;;;5.83;1.47;;;;;;;3.45;100.00;100195.59;10538204;28;20227;-72
2021/12/20 08:23:38;;;;;;;2.90;1.10;;;;;;;3.40;100.00;100184.41;10538535;28;20207;-64
2021/12/20 08:28:43;;;;;;;4.30;2.00;;;;;;;3.23;100.00;100201.22;10563897;28;20234;-67
2021/12/20 08:33:46;;;;;;;4.53;1.97;;;;;;;3.30;100.00;100191.91;10538179;28;20233;-64
2021/12/20 08:38:49;;;;;;;4.63;1.83;;;;;;;3.29;100.00;100197.91;10537905;28;20692;-65
2021/12/20 08:43:54;;;;;;;4.17;1.90;;;;;;;3.17;100.00;100216.53;10544061;28;20217;-66
2021/12/20 08:48:57;;;;;;;5.43;2.00;;;;;;;2.97;100.00;100212.72;10545786;28;20226;-66
2021/12/20 08:54:00;;;;;;;5.20;2.10;;;;;;;2.92;100.00;100219.47;10546183;28;20231;-65
2021/12/20 08:59:06;;;;;;;4.23;1.90;;;;;;;2.88;100.00;100225.38;10545060;28;20246;-67
2021/12/20 09:04:10;;;;;;;7.43;2.77;;;;;;;2.82;100.00;100232.09;10545374;28;20564;-70
2021/12/20 09:09:15;;;;;;;5.37;2.20;;;;;;;2.72;100.00;100236.19;10544813;28;20216;-67
2021/12/20 09:14:20;;;;;;;5.60;2.30;;;;;;;2.65;100.00;100251.41;10544768;28;20690;-65
2021/12/20 09:19:23;;;;;;;4.17;1.70;;;;;;;2.59;100.00;100264.09;10545378;28;20227;-69
2021/12/20 09:24:27;;;;;;;6.67;2.37;;;;;;;2.48;100.00;100273.25;10545725;28;20216;-67
2021/12/20 09:29:32;;;;;;;6.03;1.70;;;;;;;2.38;100.00;100267.94;10543968;28;20235;-67
2021/12/20 09:34:36;;;;;;;6.93;2.70;;;;;;;2.53;100.00;100277.66;10544950;28;20231;-72
2021/12/20 09:39:39;;;;;;;4.97;1.50;;;;;;;2.16;100.00;100288.78;10543433;28;20227;-66
2021/12/20 09:44:45;;;;;;;4.43;1.37;;;;;;;2.01;100.00;100282.47;10543644;28;20238;-69
2021/12/20 09:49:48;;;;;;;3.50;1.23;;;;;;;2.18;100.00;100293.94;10543031;28;20257;-66
2021/12/20 09:54:51;;;;;;;8.13;1.83;;;;;;;2.21;100.00;100309.38;10541949;28;20203;-65
2021/12/20 09:59:56;;;;;;;3.10;1.00;;;;;;;2.14;100.00;100307.53;10542676;28;20216;-66
2021/12/20 10:05:00;;;;;;;4.00;1.00;;;;;;;2.15;100.00;100311.81;10542759;28;20172;-67
2021/12/20 10:10:05;;;;;;;3.93;1.50;;;;;;;2.30;100.00;100320.69;10542287;28;20655;-71
2021/12/20 10:15:13;;;;;;;5.07;1.47;;;;;;;2.33;100.00;100318.19;10542616;28;20187;-69
2021/12/20 10:20:19;;;;;;;4.60;1.23;;;;;;;2.32;100.00;100319.03;10541684;28;20207;-68
2021/12/20 10:25:28;;;;;;;5.80;1.47;;;;;;;2.42;100.00;100330.31;10541839;28;20187;-70
2021/12/20 10:30:35;;;;;;;4.23;1.57;;;;;;;2.80;100.00;100326.88;10541539;28;20205;-70
2021/12/20 10:35:42;;;;;;;4.60;1.27;;;;;;;2.96;100.00;100334.03;10582669;28;20211;-66
2021/12/20 10:40:48;;;;;;;4.60;1.30;;;;;;;3.02;100.00;100328.19;10570004;28;20226;-67
2021/12/20 10:45:54;;;;;;;3.03;0.90;;;;;;;4.24;100.00;100312.28;10543713;28;20187;-64
2021/12/20 10:51:25;;;;;;;3.80;0.90;;;;;;;5.42;100.00;100314.56;10544124;28;20306;-67
2021/12/20 10:56:30;;;;;;;2.23;1.03;;;;;;;5.25;100.00;100316.13;10544202;28;20242;-65
2021/12/20 11:01:59;;;;;;;2.50;0.60;;;;;;;4.67;100.00;100309.47;10543136;28;20242;-67
2021/12/20 11:12:42;;;;;;;3.23;0.80;;;;;;;4.07;100.00;100317.16;10456033;28;20217;-66
2021/12/20 11:17:47;;;;;;;1.70;0.60;;;;;;;4.23;100.00;100324.25;10522551;28;20306;-69
2021/12/20 11:22:51;;;;;;;1.90;0.60;;;;;;;4.40;100.00;100317.66;10543169;28;20215;-64
2021/12/20 11:27:54;;;;;;;2.07;0.60;;;;;;;5.05;92.16;100328.78;10541293;28;20219;-67
2021/12/20 11:32:59;;;;;;;2.43;0.70;;;;;;;4.88;89.31;100342.28;10542304;28;20219;-63
2021/12/20 11:38:02;;;;;;;1.97;0.60;;;;;;;5.71;89.11;100339.75;10542416;28;20222;-66
2021/12/20 11:43:06;;;;;;;2.43;0.70;;;;;;;6.58;81.37;100343.84;10541111;28;20219;-67
2021/12/20 11:48:14;;;;;;;2.37;0.60;;;;;;;7.14;76.58;100344.09;10538955;28;20222;-67
2021/12/20 11:53:19;;;;;;;2.07;0.67;;;;;;;7.54;72.55;100346.78;10187643;27;10000448;-64
2021/12/20 11:58:24;;;;;;;1.43;0.50;;;;;;;6.13;72.95;100356.41;10538808;28;20215;-66
2021/12/20 12:03:34;;;;;;;2.37;0.63;;;;;;;5.19;76.98;100368.38;10538263;28;20315;-65
2021/12/20 12:08:40;;;;;;;2.57;0.70;;;;;;;5.09;75.93;100381.97;10538987;28;20230;-64
2021/12/20 12:14:06;;;;;;;2.80;0.90;;;;;;;4.94;78.06;100381.78;10537911;28;20227;-65
2021/12/20 12:19:10;;;;;;;2.83;0.90;;;;;;;5.20;76.97;100400.97;10545158;28;20223;-67
2021/12/20 12:24:15;;;;;;;2.40;0.70;;;;;;;4.95;74.92;100400.66;10546547;28;20698;-69
2021/12/20 12:29:21;;;;;;;4.00;2.27;;;;;;;4.20;80.02;100403.84;10546418;28;20229;-66
2021/12/20 12:34:39;;;;;;;1.77;0.60;;;;;;;3.74;79.77;100421.88;10546233;28;20254;-64
2021/12/20 12:39:42;;;;;;;3.07;0.87;;;;;;;3.76;80.49;100429.59;10545862;28;20305;-66
2021/12/20 12:44:51;;;;;;;2.17;0.73;;;;;;;3.78;83.47;100438.19;10545712;28;20216;-64
2021/12/20 12:49:57;;;;;;;3.73;0.80;;;;;;;3.55;82.49;100450.59;10545923;28;20262;-69
2021/12/20 12:55:03;;;;;;;2.93;0.73;;;;;;;3.27;84.46;100471.41;10539475;28;20231;-66
2021/12/20 13:00:12;;;;;;;8.50;3.70;;;;;;;2.66;82.67;100476.88;10548045;28;20231;-70
2021/12/20 13:05:21;;;;;;;2.63;0.73;;;;;;;2.79;83.26;100495.97;10548540;28;20232;-66
2021/12/20 13:10:30;;;;;;;2.27;0.73;;;;;;;2.64;82.36;100499.03;10548469;28;20223;-69
2021/12/20 13:15:38;;;;;;;2.90;0.83;;;;;;;2.46;80.67;100505.41;10547662;28;20230;-69
2021/12/20 13:20:50;;;;;;;3.00;0.80;;;;;;;2.27;85.05;100514.34;10547621;28;20318;-66
2021/12/20 13:25:55;;;;;;;3.20;0.77;;;;;;;2.15;85.07;100535.38;10547287;28;20219;-65
2021/12/20 13:31:02;;;;;;;3.20;0.90;;;;;;;2.02;85.30;100543.53;10547475;28;20310;-68
2021/12/20 13:36:10;;;;;;;2.67;1.10;;;;;;;2.07;86.74;100548.81;10546759;28;20271;-67
2021/12/20 13:41:17;;;;;;;10.47;1.20;;;;;;;1.87;87.76;100557.59;10544381;28;20238;-68
2021/12/20 13:46:30;;;;;;;15.43;7.13;;;;;;;1.78;89.92;100570.13;10541132;28;20219;-65
2021/12/20 13:51:41;;;;;;;3.80;1.13;;;;;;;1.54;88.69;100582.22;10525830;28;20219;-66
2021/12/20 13:56:45;;;;;;;4.20;0.70;;;;;;;1.58;89.31;100590.06;10546231;28;20219;-67
2021/12/20 14:01:48;;;;;;;4.70;0.93;;;;;;;1.55;86.24;100595.09;10545310;28;20235;-64
2021/12/20 14:06:53;;;;;;;2.13;0.90;;;;;;;1.41;85.63;100601.47;10545859;28;20211;-66
2021/12/20 14:12:14;;;;;;;4.57;1.00;;;;;;;1.32;89.83;100613.09;10545090;28;20215;-67
2021/12/20 14:17:17;;;;;;;5.17;1.00;;;;;;;1.20;90.34;100623.81;10544202;28;20256;-67
2021/12/20 14:22:22;;;;;;;5.40;2.17;;;;;;;1.02;89.27;100628.34;10190292;27;10000194;-66
2021/12/20 14:27:26;;;;;;;4.23;1.40;;;;;;;1.00;89.28;100637.66;10541411;28;20290;-69
2021/12/20 14:32:37;;;;;;;4.60;1.47;;;;;;;0.72;91.18;100652.88;10541211;28;20669;-67
2021/12/20 14:37:41;;;;;;;2.83;1.00;;;;;;;0.63;91.03;100663.66;10541366;28;20612;-66
2021/12/20 14:43:03;;;;;;;4.57;1.07;;;;;;;0.46;93.83;100666.44;10540330;28;20219;-66
2021/12/20 14:48:29;;;;;;;5.03;1.20;;;;;;;0.35;91.29;100685.59;10541298;28;20225;-69
2021/12/20 14:53:33;;;;;;;4.70;1.40;;;;;;;0.27;91.51;100693.00;10542573;28;20261;-65
2021/12/20 14:58:37;;;;;;;7.03;1.30;;;;;;;0.32;91.74;100693.16;10538752;28;20284;-68
2021/12/20 15:03:42;;;;;;;3.03;1.00;;;;;;;0.20;89.90;100692.72;10538836;28;20564;-68
2021/12/20 15:08:49;;;;;;;3.23;1.00;;;;;;;0.08;88.77;100702.47;10540220;28;20229;-67
2021/12/20 15:13:53;;;;;;;5.37;1.10;;;;;;;-0.07;88.12;100701.09;10539973;28;20665;-67
2021/12/20 15:18:58;;;;;;;4.50;1.30;;;;;;;-0.08;86.01;100707.03;10539471;28;20212;-67
2021/12/20 15:24:05;;;;;;;4.77;1.30;;;;;;;-0.04;88.50;100718.22;10539114;28;20675;-63
2021/12/20 15:29:08;;;;;;;12.77;5.30;;;;;;;0.15;90.49;100715.53;10539797;28;20326;-64
2021/12/20 15:34:13;;;;;;;6.10;1.97;;;;;;;-0.06;89.60;100730.91;10539038;28;20219;-67
2021/12/20 15:39:18;;;;;;;6.50;1.70;;;;;;;-0.08;90.68;100732.53;10539013;28;20302;-67
2021/12/20 15:44:21;;;;;;;5.13;1.70;;;;;;;-0.08;87.25;100736.75;10539076;28;20220;-67
2021/12/20 15:49:24;;;;;;;6.17;2.47;;;;;;;-0.06;87.58;100746.22;10538756;28;20664;-67
2021/12/20 15:54:31;;;;;;;4.73;1.63;;;;;;;-0.19;88.52;100756.75;10538622;28;20215;-67
2021/12/20 15:59:34;;;;;;;13.23;4.77;;;;;;;-0.12;89.40;100755.28;10538359;28;20278;-68
2021/12/20 16:04:38;;;;;;;7.37;2.10;;;;;;;-0.01;87.96;100757.47;10538361;28;20226;-67
2021/12/20 16:09:43;;;;;;;5.47;2.50;;;;;;;-0.10;88.88;100767.31;10538845;28;21315;-68
2021/12/20 16:14:46;;;;;;;4.87;1.57;;;;;;;-0.07;88.45;100766.56;10536944;28;20203;-69
2021/12/20 16:19:50;;;;;;;6.87;1.90;;;;;;;-0.20;88.83;100779.63;10537153;28;20276;-68
2021/12/20 16:24:54;;;;;;;8.57;2.27;;;;;;;-0.28;91.76;100784.44;10563925;28;20187;-66
2021/12/20 16:29:59;;;;;;;5.00;1.93;;;;;;;-0.26;92.02;100787.91;10580748;28;20202;-67
2021/12/20 16:35:05;;;;;;;7.40;2.67;;;;;;;-0.26;92.02;100793.00;10580398;28;20199;-67
2021/12/20 16:40:14;;;;;;;7.60;2.93;;;;;;;-0.37;93.02;100793.41;10580131;28;20249;-66
2021/12/20 16:45:28;;;;;;;8.57;3.20;;;;;;;-0.48;93.36;100794.63;10580445;28;20278;-66
2021/12/20 16:50:31;;;;;;;14.40;5.20;;;;;;;-0.44;95.60;100799.06;10580303;28;20230;-67
2021/12/20 16:55:36;;;;;;;7.47;2.80;;;;;;;-0.55;93.87;100803.72;10579912;28;20294;-67
2021/12/20 17:00:40;;;;;;;9.70;3.03;;;;;;;-0.50;94.51;100812.41;10579507;28;20576;-65
2021/12/20 17:05:58;;;;;;;10.90;2.97;;;;;;;-0.60;95.49;100817.94;10587001;28;20212;-66
2021/12/20 17:11:02;;;;;;;10.63;3.60;;;;;;;-0.60;95.45;100827.25;10587355;28;20233;-66
2021/12/20 17:16:07;;;;;;;119.43;56.10;;;;;;;-0.60;94.53;100830.69;10587262;27;20221;-64
2021/12/20 17:21:10;;;;;;;7.80;2.83;;;;;;;-0.65;93.81;100846.59;10586663;28;20227;-69
2021/12/20 17:26:17;;;;;;;6.30;2.20;;;;;;;-0.71;92.67;100849.78;10550918;28;20203;-64
2021/12/20 17:31:21;;;;;;;7.50;2.03;;;;;;;-0.75;91.47;100858.09;10547596;28;20195;-73
2021/12/20 17:36:24;;;;;;;6.33;2.00;;;;;;;-0.78;91.64;100868.16;10547171;28;20210;-68
2021/12/20 17:41:29;;;;;;;9.77;1.60;;;;;;;-0.69;91.43;100876.16;10546847;28;20211;-66
2021/12/20 17:46:32;;;;;;;5.67;1.60;;;;;;;-0.64;90.86;100882.31;10546525;28;20332;-69
2021/12/20 17:51:35;;;;;;;4.57;1.60;;;;;;;-0.77;90.61;100882.63;10546700;28;20527;-68
2021/12/20 17:56:40;;;;;;;5.33;1.40;;;;;;;-0.80;92.74;100885.03;10546446;28;20271;-67
2021/12/20 18:01:43;;;;;;;5.67;1.60;;;;;;;-0.79;91.48;100902.06;10545833;28;20259;-68
2021/12/20 18:06:49;;;;;;;51.00;20.40;;;;;;;-0.89;90.96;100899.03;10546090;28;20192;-66
2021/12/20 18:11:54;;;;;;;7.00;2.10;;;;;;;-0.97;91.59;100906.38;10546300;28;20210;-67
2021/12/20 18:16:57;;;;;;;6.60;2.00;;;;;;;-0.95;91.81;100912.41;10544493;28;20199;-67
2021/12/20 18:22:00;;;;;;;7.33;2.47;;;;;;;-1.02;92.29;100920.56;10544998;28;20237;-68
2021/12/20 18:27:06;;;;;;;7.00;2.50;;;;;;;-1.00;93.78;100930.81;10545519;28;20199;-68
2021/12/20 18:32:09;;;;;;;12.30;3.57;;;;;;;-0.98;95.06;100931.78;10545211;28;20199;-67
2021/12/20 18:37:13;;;;;;;8.80;2.30;;;;;;;-1.12;94.69;100940.47;10544549;28;20199;-65
2021/12/20 18:42:18;;;;;;;9.57;2.50;;;;;;;-1.15;94.73;100936.09;10544278;28;20219;-65
2021/12/20 18:47:21;;;;;;;8.33;2.30;;;;;;;-1.17;95.52;100950.41;10544223;28;20544;-66
2021/12/20 18:52:25;;;;;;;6.40;2.27;;;;;;;-1.17;95.54;100943.66;10544575;28;20331;-68
2021/12/20 18:57:29;;;;;;;7.83;2.10;;;;;;;-1.15;94.29;100951.38;10544007;28;20205;-65
2021/12/20 19:02:32;;;;;;;8.23;2.10;;;;;;;-1.23;94.43;100957.78;10543728;28;20231;-64
2021/12/20 19:07:36;;;;;;;5.70;1.90;;;;;;;-1.29;95.83;100957.50;10543639;28;20283;-65
2021/12/20 19:12:40;;;;;;;8.87;2.20;;;;;;;-1.27;96.25;100958.44;10543641;28;20725;-65
2021/12/20 19:17:45;;;;;;;4.70;1.97;;;;;;;-1.32;94.45;100965.00;10544131;28;20229;-69
2021/12/20 19:22:49;;;;;;;7.80;2.30;;;;;;;-1.40;95.79;100963.78;10542875;28;20219;-69
2021/12/20 19:27:54;;;;;;;7.67;2.30;;;;;;;-1.44;94.76;100967.84;10542492;28;20231;-66
2021/12/20 19:32:57;;;;;;;7.70;2.30;;;;;;;-1.48;93.61;100973.59;10543379;28;20237;-63
2021/12/20 19:38:00;;;;;;;5.80;2.13;;;;;;;-1.42;93.54;100983.19;10542699;28;20229;-67
2021/12/20 19:43:06;;;;;;;7.17;2.50;;;;;;;-1.51;92.64;100983.63;10542297;28;20245;-64
2021/12/20 19:48:09;;;;;;;11.83;2.40;;;;;;;-1.51;92.18;100976.00;10542683;28;20525;-63
2021/12/20 19:53:13;;;;;;;7.60;2.73;;;;;;;-1.50;93.44;100984.50;10542798;28;20315;-68
2021/12/20 19:58:18;;;;;;;11.93;3.00;;;;;;;-1.49;93.39;100981.16;10541839;28;20490;-63
2021/12/20 20:03:22;;;;;;;7.40;2.97;;;;;;;-1.54;94.22;100980.06;10541360;28;20231;-64
2021/12/20 20:08:25;;;;;;;8.27;2.83;;;;;;;-1.62;95.74;100988.97;10541684;28;20595;-66
2021/12/20 20:13:30;;;;;;;10.73;2.57;;;;;;;-1.64;94.90;100988.06;10542113;28;20223;-66
2021/12/20 20:18:33;;;;;;;8.17;2.80;;;;;;;-1.63;94.85;101000.84;10541452;28;20222;-68
2021/12/20 20:23:37;;;;;;;11.13;3.33;;;;;;;-1.64;93.94;101000.78;10542004;28;20215;-70
2021/12/20 20:29:04;;;;;;;11.13;3.10;;;;;;;-1.74;95.42;101004.53;10541248;28;20222;-65
2021/12/20 20:34:08;;;;;;;10.17;3.27;;;;;;;-1.86;95.71;101009.03;10541518;28;20813;-66
2021/12/20 20:39:13;;;;;;;12.03;3.83;;;;;;;-1.87;98.62;101014.03;10546528;28;20188;-66
2021/12/20 20:44:18;;;;;;;11.00;3.70;;;;;;;-1.88;97.49;101014.84;10212058;27;10000688;-66
2021/12/20 20:49:21;;;;;;;14.10;3.80;;;;;;;-1.92;97.98;101021.44;10588266;28;20554;-66
2021/12/20 20:54:25;;;;;;;10.03;3.60;;;;;;;-1.95;97.89;101018.72;10587945;28;20720;-63
2021/12/20 20:59:29;;;;;;;11.57;3.80;;;;;;;-2.03;99.28;101022.56;10587716;28;20219;-64
2021/12/20 21:04:33;;;;;;;16.90;6.40;;;;;;;-1.93;100.00;101029.00;10587420;28;20325;-67
2021/12/20 21:09:38;;;;;;;14.07;5.33;;;;;;;-1.98;99.78;101030.41;10587446;28;20301;-66
2021/12/20 21:14:44;;;;;;;10.90;3.93;;;;;;;-2.00;100.00;101032.88;10587576;28;20690;-64
2021/12/20 21:19:48;;;;;;;10.13;4.27;;;;;;;-1.98;98.61;101040.59;10587411;28;20309;-68
2021/12/20 21:24:51;;;;;;;14.40;4.97;;;;;;;-2.03;100.00;101042.03;10554190;28;20223;-66
2021/12/20 21:29:56;;;;;;;13.30;4.63;;;;;;;-2.07;100.00;101032.53;10544825;28;20223;-70
2021/12/20 21:34:59;;;;;;;10.13;4.30;;;;;;;-2.08;100.00;101036.72;10544236;28;20219;-68
2021/12/20 21:40:04;;;;;;;16.43;4.97;;;;;;;-2.11;100.00;101030.59;10544055;28;20306;-68
2021/12/20 21:45:09;;;;;;;11.67;4.50;;;;;;;-2.14;100.00;101033.00;10568992;28;20219;-67
2021/12/20 21:50:13;;;;;;;14.47;4.63;;;;;;;-2.13;100.00;101045.78;10585574;28;20598;-66
2021/12/20 21:55:17;;;;;;;18.60;6.23;;;;;;;-2.16;100.00;101047.31;10585971;28;20853;-69
2021/12/20 22:00:22;;;;;;;15.43;5.33;;;;;;;-2.20;100.00;101038.63;10585367;28;20717;-62
2021/12/20 22:05:25;;;;;;;16.17;5.63;;;;;;;-1.99;100.00;101038.84;10585342;28;20227;-69
2021/12/20 22:10:29;;;;;;;12.23;4.70;;;;;;;-1.94;100.00;101042.50;10585216;28;20211;-66
2021/12/20 22:15:34;;;;;;;11.13;4.70;;;;;;;-1.96;100.00;101041.53;10584883;28;20217;-68
2021/12/20 22:20:37;;;;;;;12.73;5.27;;;;;;;-1.90;100.00;101052.03;10584870;28;20300;-68
2021/12/20 22:25:40;;;;;;;14.67;5.53;;;;;;;-1.86;100.00;101053.91;10584484;28;20663;-66
2021/12/20 22:30:45;;;;;;;14.50;6.07;;;;;;;-1.76;100.00;101062.09;10583652;28;20622;-68
2021/12/20 22:35:49;;;;;;;15.57;6.37;;;;;;;-1.67;100.00;101064.22;10585007;28;20677;-67
2021/12/20 22:40:52;;;;;;;17.37;7.60;;;;;;;-1.57;100.00;101062.19;10583868;28;20327;-67
2021/12/20 22:45:57;;;;;;;23.17;7.57;;;;;;;-1.48;100.00;101061.78;10551586;28;20219;-69
2021/12/20 22:51:00;;;;;;;34.03;15.20;;;;;;;-1.45;100.00;101062.78;10541628;28;20219;-69
2021/12/20 22:56:04;;;;;;;20.97;8.10;;;;;;;-1.41;100.00;101063.81;10541302;28;20233;-68
2021/12/20 23:01:10;;;;;;;18.33;7.57;;;;;;;-1.36;100.00;101073.44;10539818;28;20591;-69
2021/12/20 23:06:14;;;;;;;16.57;7.23;;;;;;;-1.26;100.00;101065.44;10540594;28;20306;-69
2021/12/20 23:11:17;;;;;;;20.30;8.00;;;;;;;-1.22;100.00;101069.88;10540623;28;20548;-68
2021/12/20 23:16:22;;;;;;;17.17;7.17;;;;;;;-1.27;100.00;101067.91;10540593;28;20224;-69
2021/12/20 23:21:25;;;;;;;16.77;7.00;;;;;;;-1.23;100.00;101060.50;10540152;28;20219;-70
2021/12/20 23:26:35;;;;;;;16.07;6.83;;;;;;;-1.20;100.00;101064.84;10539154;28;20223;-69
2021/12/20 23:31:40;;;;;;;19.23;6.53;;;;;;;-1.16;100.00;101066.75;10540101;28;20231;-67